| time (UTC) | temp C | wind direction | speed KPH | gust KPH | rain 1hr cm | rain 24hr cm | rain mn cm | humidity % | barometer mb |
| 20260505092814 | 7 | 250 | 0.0 | 0.0 | 0.00 | 0.18 | 0.18 | 92 | 1010.0 |
| 20260505092313 | 7 | 254 | 0.0 | 0.0 | 0.00 | 0.18 | 0.18 | 92 | 1009.8 |
| 20260505091810 | 7 | 250 | 0.0 | 0.0 | 0.00 | 0.18 | 0.18 | 92 | 1009.6 |
| 20260505091308 | 7 | 243 | 0.0 | 0.0 | 0.00 | 0.18 | 0.18 | 91 | 1009.7 |
| 20260505090806 | 7 | 238 | 1.6 | 1.6 | 0.00 | 0.18 | 0.18 | 91 | 1009.9 |
| 20260505090304 | 7 | 260 | 0.0 | 0.0 | 0.00 | 0.18 | 0.18 | 91 | 1009.6 |
| 20260505085800 | 7 | 265 | 0.0 | 0.0 | 0.00 | 0.18 | 0.18 | 90 | 1009.2 |
| 20260505085259 | 7 | 250 | 0.0 | 0.0 | 0.00 | 0.18 | 0.18 | 90 | 1009.5 |
| 20260505084755 | 7 | 238 | 1.6 | 1.6 | 0.00 | 0.18 | 0.18 | 90 | 1010.0 |
| 20260505084249 | 7 | 245 | 0.0 | 1.6 | 0.00 | 0.18 | 0.18 | 90 | 1009.8 |
| 20260505083746 | 7 | 232 | 1.6 | 3.2 | 0.00 | 0.18 | 0.18 | 90 | 1009.5 |
| 20260505083242 | 7 | 242 | 0.0 | 1.6 | 0.00 | 0.18 | 0.18 | 90 | 1009.0 |
| 20260505082739 | 7 | 198 | 0.0 | 1.6 | 0.00 | 0.18 | 0.18 | 89 | 1008.4 |
| 20260505082236 | 7 | 200 | 1.6 | 1.6 | 0.00 | 0.18 | 0.18 | 88 | 1009.3 |
| 20260505081732 | 7 | 238 | 1.6 | 1.6 | 0.00 | 0.18 | 0.18 | 88 | 1009.6 |
| 20260505081229 | 7 | 238 | 0.0 | 3.2 | 0.00 | 0.18 | 0.18 | 88 | 1009.7 |
| 20260505080726 | 7 | 252 | 0.0 | 0.0 | 0.00 | 0.18 | 0.18 | 88 | 1009.6 |
| 20260505080221 | 7 | 254 | 1.6 | 1.6 | 0.00 | 0.18 | 0.18 | 86 | 1008.8 |
| 20260505075717 | 7 | 251 | 0.0 | 0.0 | 0.00 | 0.18 | 0.18 | 85 | 1008.0 |
| 20260505075215 | 7 | 256 | 0.0 | 1.6 | 0.00 | 0.18 | 0.18 | 84 | 1007.8 |
| 20260505074712 | 7 | 240 | 0.0 | 1.6 | 0.18 | 0.18 | 0.18 | 84 | 1008.1 |
| 20260505074209 | 8 | 246 | 0.0 | 0.0 | 0.30 | 0.18 | 0.18 | 83 | 1008.2 |
| 20260505073707 | 8 | 244 | 0.0 | 1.6 | 0.13 | 0.15 | 0.15 | 79 | 1008.2 |
| 20260505073204 | 8 | 288 | 1.6 | 4.8 | 0.00 | 0.13 | 0.13 | 76 | 1008.3 |
| 20260505072700 | 8 | 350 | 6.4 | 9.7 | 0.00 | 0.13 | 0.13 | 79 | 1008.4 |
| 20260505072156 | 8 | 295 | 1.6 | 3.2 | 0.18 | 0.13 | 0.13 | 81 | 1009.0 |
| 20260505071652 | 8 | 258 | 0.0 | 1.6 | 0.18 | 0.13 | 0.13 | 79 | 1009.1 |
| 20260505071150 | 8 | 272 | 1.6 | 3.2 | 0.13 | 0.10 | 0.10 | 78 | 1008.6 |
| 20260505070647 | 8 | 265 | 1.6 | 3.2 | 0.13 | 0.10 | 0.10 | 78 | 1008.1 |
| 20260505070143 | 8 | 353 | 1.6 | 4.8 | 0.18 | 0.08 | 0.08 | 75 | 1008.5 |
| 20260505065639 | 8 | 287 | 3.2 | 11.3 | 0.13 | 0.05 | 0.05 | 72 | 1009.2 |
| 20260505065136 | 8 | 293 | 1.6 | 4.8 | 0.13 | 0.05 | 0.05 | 72 | 1009.0 |
| 20260505064633 | 9 | 319 | 3.2 | 4.8 | 0.00 | 0.03 | 0.03 | 67 | 1008.8 |
| 20260505064131 | 9 | 344 | 6.4 | 12.9 | 0.18 | 0.03 | 0.03 | 65 | 1009.0 |
| 20260505063628 | 10 | 294 | 4.8 | 14.5 | 0.18 | 0.03 | 0.03 | 65 | 1009.6 |
| 20260505063124 | 10 | 327 | 6.4 | 12.9 | 0.00 | 0.00 | 0.00 | 62 | 1009.6 |
| 20260505062621 | 10 | 344 | 3.2 | 11.3 | 0.00 | 0.00 | 0.00 | 59 | 1009.8 |
| 20260505062118 | 10 | 350 | 6.4 | 9.7 | 0.00 | 0.00 | 0.00 | 56 | 1009.8 |
| 20260505061615 | 10 | 324 | 1.6 | 4.8 | 0.00 | 0.00 | 0.00 | 56 | 1009.5 |
| 20260505061113 | 11 | 334 | 3.2 | 8.0 | 0.00 | 0.00 | 0.00 | 54 | 1009.4 |
| 20260505060611 | 11 | 326 | 4.8 | 9.7 | 0.00 | 0.00 | 0.00 | 51 | 1009.2 |
| 20260505060107 | 11 | 359 | 4.8 | 11.3 | 0.00 | 0.00 | 0.00 | 50 | 1009.1 |
| 20260505055602 | 11 | 118 | 3.2 | 4.8 | 0.00 | 0.00 | 0.00 | 51 | 1009.2 |
| 20260505055059 | 11 | 279 | 1.6 | 8.0 | 0.00 | 0.00 | 0.00 | 51 | 1009.1 |
| 20260505054556 | 11 | 26 | 12.9 | 17.7 | 0.00 | 0.00 | 0.00 | 46 | 1009.2 |
| 20260505054055 | 11 | 254 | 0.0 | 3.2 | 0.00 | 0.00 | 0.00 | 46 | 1009.2 |
| 20260505053551 | 11 | 132 | 4.8 | 12.9 | 0.00 | 0.00 | 0.00 | 46 | 1008.6 |
| 20260505053048 | 11 | 356 | 3.2 | 9.7 | 0.00 | 0.00 | 0.00 | 45 | 1008.4 |
| 20260505052545 | 11 | 336 | 8.0 | 20.9 | 0.00 | 0.00 | 0.00 | 44 | 1008.3 |
| 20260505052043 | 12 | 6 | 8.0 | 12.9 | 0.00 | 0.00 | 0.00 | 44 | 1008.0 |
| 20260505051539 | 12 | 357 | 12.9 | 14.5 | 0.00 | 0.00 | 0.00 | 44 | 1008.0 |
| 20260505051037 | 12 | 6 | 9.7 | 12.9 | 0.00 | 0.00 | 0.00 | 43 | 1008.2 |
| 20260505050535 | 12 | 327 | 8.0 | 12.9 | 0.00 | 0.00 | 0.00 | 44 | 1008.1 |
| 20260505041503 | 13 | 0 | 4.8 | 14.5 | 0.00 | 0.00 | 0.00 | 41 | 1007.8 |
| 20260505041000 | 13 | 327 | 11.3 | 20.9 | 0.00 | 0.00 | 0.00 | 40 | 1007.8 |
| 20260505040458 | 13 | 329 | 4.8 | 14.5 | 0.00 | 0.00 | 0.00 | 39 | 1007.7 |
| 20260505035954 | 13 | 27 | 6.4 | 22.5 | 0.00 | 0.00 | 0.00 | 39 | 1007.8 |
| 20260505035450 | 13 | 345 | 9.7 | 22.5 | 0.00 | 0.00 | 0.00 | 38 | 1007.9 |
| 20260505034948 | 13 | 313 | 1.6 | 9.7 | 0.00 | 0.00 | 0.00 | 38 | 1007.9 |
| 20260505034444 | 13 | 324 | 3.2 | 8.0 | 0.00 | 0.00 | 0.00 | 39 | 1007.7 |
| 20260505033941 | 13 | 342 | 4.8 | 22.5 | 0.00 | 0.00 | 0.00 | 38 | 1007.7 |
| 20260505033438 | 13 | 327 | 6.4 | 11.3 | 0.00 | 0.00 | 0.00 | 38 | 1007.8 |
| 20260505032936 | 13 | 335 | 8.0 | 11.3 | 0.00 | 0.00 | 0.00 | 38 | 1008.0 |
| 20260505032433 | 13 | 200 | 4.8 | 11.3 | 0.00 | 0.00 | 0.00 | 38 | 1007.8 |
| 20260505031929 | 13 | 20 | 8.0 | 11.3 | 0.00 | 0.00 | 0.00 | 36 | 1007.8 |
| 20260505031427 | 13 | 276 | 4.8 | 22.5 | 0.00 | 0.00 | 0.00 | 37 | 1007.5 |
| 20260505030923 | 13 | 280 | 3.2 | 14.5 | 0.00 | 0.00 | 0.00 | 37 | 1007.2 |
| 20260505030419 | 13 | 8 | 8.0 | 17.7 | 0.00 | 0.00 | 0.00 | 37 | 1007.3 |
| 20260505025915 | 13 | 0 | 9.7 | 17.7 | 0.00 | 0.00 | 0.00 | 38 | 1007.5 |
| 20260505025412 | 14 | 295 | 4.8 | 27.4 | 0.00 | 0.00 | 0.00 | 37 | 1007.5 |
| 20260505024911 | 14 | 19 | 6.4 | 16.1 | 0.00 | 0.00 | 0.00 | 38 | 1007.3 |
| 20260505024408 | 14 | 337 | 17.7 | 27.4 | 0.00 | 0.00 | 0.00 | 37 | 1007.4 |
| 20260505023905 | 14 | 1 | 6.4 | 22.5 | 0.00 | 0.00 | 0.00 | 37 | 1007.2 |
| 20260505023402 | 15 | 336 | 4.8 | 9.7 | 0.00 | 0.00 | 0.00 | 37 | 1007.0 |
| 20260505022859 | 15 | 346 | 9.7 | 12.9 | 0.00 | 0.00 | 0.00 | 36 | 1007.1 |
| 20260505022356 | 15 | 332 | 11.3 | 24.1 | 0.00 | 0.00 | 0.00 | 35 | 1006.7 |
| 20260505021854 | 15 | 348 | 4.8 | 11.3 | 0.00 | 0.00 | 0.00 | 35 | 1006.3 |
| 20260505021350 | 15 | 336 | 4.8 | 16.1 | 0.00 | 0.00 | 0.00 | 35 | 1006.5 |
| 20260505020846 | 15 | 274 | 6.4 | 24.1 | 0.00 | 0.00 | 0.00 | 34 | 1006.4 |
| 20260505020341 | 15 | 277 | 4.8 | 17.7 | 0.00 | 0.00 | 0.00 | 34 | 1006.3 |
| 20260505015838 | 16 | 312 | 4.8 | 17.7 | 0.00 | 0.00 | 0.00 | 35 | 1006.1 |
| 20260505015336 | 16 | 282 | 4.8 | 20.9 | 0.00 | 0.00 | 0.00 | 35 | 1006.0 |
| 20260505014833 | 16 | 356 | 4.8 | 11.3 | 0.00 | 0.00 | 0.00 | 35 | 1005.8 |
| 20260505014330 | 16 | 51 | 11.3 | 14.5 | 0.00 | 0.00 | 0.00 | 34 | 1005.6 |
| 20260505013826 | 17 | 311 | 4.8 | 8.0 | 0.00 | 0.00 | 0.00 | 33 | 1005.5 |
| 20260505013324 | 17 | 355 | 9.7 | 14.5 | 0.00 | 0.00 | 0.00 | 31 | 1005.1 |
| 20260505012822 | 17 | 332 | 6.4 | 12.9 | 0.00 | 0.00 | 0.00 | 31 | 1005.1 |
| 20260505012319 | 17 | 5 | 8.0 | 20.9 | 0.00 | 0.00 | 0.00 | 31 | 1004.8 |
| 20260505011815 | 18 | 23 | 8.0 | 24.1 | 0.00 | 0.00 | 0.00 | 30 | 1004.9 |
| 20260505011312 | 18 | 358 | 9.7 | 16.1 | 0.00 | 0.00 | 0.00 | 29 | 1004.5 |
| 20260505010808 | 18 | 333 | 4.8 | 9.7 | 0.00 | 0.00 | 0.00 | 29 | 1004.5 |
| 20260505010304 | 18 | 353 | 8.0 | 25.7 | 0.00 | 0.00 | 0.00 | 29 | 1004.3 |
| 20260505005800 | 19 | 323 | 14.5 | 25.7 | 0.00 | 0.00 | 0.00 | 28 | 1004.4 |
| 20260505005258 | 19 | 228 | 8.0 | 17.7 | 0.00 | 0.00 | 0.00 | 28 | 1004.0 |
| 20260505004755 | 19 | 259 | 4.8 | 16.1 | 0.00 | 0.00 | 0.00 | 29 | 1003.9 |
| 20260505004251 | 20 | 9 | 4.8 | 12.9 | 0.00 | 0.00 | 0.00 | 29 | 1004.0 |
| 20260505003748 | 20 | 253 | 9.7 | 17.7 | 0.00 | 0.00 | 0.00 | 28 | 1003.7 |
| 20260505003246 | 20 | 325 | 17.7 | 22.5 | 0.00 | 0.00 | 0.00 | 27 | 1003.8 |
| 20260505002742 | 21 | 292 | 11.3 | 16.1 | 0.00 | 0.00 | 0.00 | 28 | 1003.5 |
| 20260505002240 | 21 | 229 | 8.0 | 16.1 | 0.00 | 0.00 | 0.00 | 28 | 1003.2 |
| 20260505001737 | 21 | 92 | 8.0 | 12.9 | 0.00 | 0.00 | 0.00 | 27 | 1003.2 |
| 20260505001234 | 22 | 310 | 8.0 | 11.3 | 0.00 | 0.00 | 0.00 | 28 | 1003.0 |
| 20260505000731 | 22 | 334 | 4.8 | 8.0 | 0.00 | 0.00 | 0.00 | 26 | 1003.0 |
| 20260505000229 | 22 | 340 | 8.0 | 11.3 | 0.00 | 0.00 | 0.00 | 26 | 1002.7 |
| 20260504235725 | 22 | 12 | 8.0 | 22.5 | 0.00 | 0.00 | 0.00 | 26 | 1002.9 |
| 20260504235221 | 23 | 266 | 8.0 | 24.1 | 0.00 | 0.00 | 0.00 | 26 | 1002.8 |
| 20260504234719 | 23 | 257 | 4.8 | 9.7 | 0.00 | 0.00 | 0.00 | 26 | 1002.9 |
| 20260504234216 | 23 | 80 | 6.4 | 12.9 | 0.00 | 0.00 | 0.00 | 25 | 1002.8 |
| 20260504233712 | 23 | 338 | 9.7 | 14.5 | 0.00 | 0.00 | 0.00 | 24 | 1002.7 |
| 20260504233208 | 23 | 244 | 8.0 | 20.9 | 0.00 | 0.00 | 0.00 | 25 | 1002.7 |
| 20260504232706 | 24 | 324 | 8.0 | 22.5 | 0.00 | 0.00 | 0.00 | 24 | 1002.4 |
| 20260504232202 | 24 | 341 | 6.4 | 9.7 | 0.00 | 0.00 | 0.00 | 26 | 1002.4 |
| 20260504231659 | 24 | 32 | 4.8 | 12.9 | 0.00 | 0.00 | 0.00 | 26 | 1002.2 |
| 20260504231155 | 25 | 313 | 6.4 | 16.1 | 0.00 | 0.00 | 0.00 | 25 | 1002.5 |
| 20260504230652 | 25 | 316 | 8.0 | 12.9 | 0.00 | 0.00 | 0.00 | 24 | 1002.3 |
| 20260504230151 | 25 | 11 | 17.7 | 32.2 | 0.00 | 0.00 | 0.00 | 25 | 1002.1 |
| 20260504225649 | 25 | 344 | 8.0 | 9.7 | 0.00 | 0.00 | 0.00 | 25 | 1002.3 |
| 20260504225144 | 25 | 6 | 3.2 | 9.7 | 0.00 | 0.00 | 0.00 | 27 | 1002.1 |
| 20260504224641 | 25 | 314 | 11.3 | 20.9 | 0.00 | 0.00 | 0.00 | 24 | 1001.8 |
| 20260504224138 | 25 | 15 | 8.0 | 27.4 | 0.00 | 0.00 | 0.00 | 26 | 1002.0 |
| 20260504223636 | 25 | 311 | 12.9 | 22.5 | 0.00 | 0.00 | 0.00 | 24 | 1002.1 |
| 20260504223131 | 25 | 16 | 8.0 | 25.7 | 0.00 | 0.00 | 0.00 | 25 | 1001.4 |
| 20260504222628 | 26 | 19 | 14.5 | 24.1 | 0.00 | 0.00 | 0.00 | 25 | 1001.4 |
| 20260504222125 | 26 | 28 | 8.0 | 14.5 | 0.00 | 0.00 | 0.00 | 27 | 1001.5 |
| 20260504221622 | 27 | 18 | 4.8 | 11.3 | 0.00 | 0.00 | 0.00 | 26 | 1001.4 |
| 20260504221119 | 27 | 347 | 3.2 | 16.1 | 0.00 | 0.00 | 0.00 | 26 | 1001.0 |
| 20260504220615 | 27 | 252 | 3.2 | 11.3 | 0.00 | 0.00 | 0.00 | 28 | 1001.0 |
| 20260504220114 | 27 | 302 | 8.0 | 22.5 | 0.00 | 0.00 | 0.00 | 27 | 1001.1 |
| 20260504215609 | 28 | 42 | 14.5 | 20.9 | 0.00 | 0.00 | 0.00 | 26 | 1001.0 |
| 20260504215107 | 28 | 261 | 1.6 | 8.0 | 0.00 | 0.00 | 0.00 | 27 | 1000.8 |
| 20260504214603 | 28 | 285 | 4.8 | 14.5 | 0.00 | 0.00 | 0.00 | 27 | 1000.7 |
| 20260504214059 | 28 | 242 | 1.6 | 8.0 | 0.00 | 0.00 | 0.00 | 27 | 1000.7 |
| 20260504213555 | 28 | 258 | 1.6 | 8.0 | 0.00 | 0.00 | 0.00 | 26 | 1000.7 |
| 20260504213052 | 28 | 263 | 3.2 | 8.0 | 0.00 | 0.00 | 0.00 | 28 | 1000.4 |
| 20260504212548 | 27 | 257 | 3.2 | 9.7 | 0.00 | 0.00 | 0.00 | 28 | 1000.7 |
| 20260504212046 | 27 | 23 | 3.2 | 9.7 | 0.00 | 0.00 | 0.00 | 28 | 1000.8 |
| 20260504211543 | 27 | 250 | 1.6 | 4.8 | 0.00 | 0.00 | 0.00 | 27 | 1000.6 |
| 20260504211040 | 28 | 307 | 6.4 | 8.0 | 0.00 | 0.00 | 0.00 | 26 | 1000.6 |
| 20260504210537 | 28 | 249 | 3.2 | 9.7 | 0.00 | 0.00 | 0.00 | 25 | 1000.6 |
| 20260504210033 | 30 | 356 | 8.0 | 16.1 | 0.00 | 0.00 | 0.00 | 22 | 1000.7 |
| 20260504205531 | 30 | 2 | 4.8 | 9.7 | 0.00 | 0.00 | 0.00 | 21 | 1000.5 |
| 20260504205029 | 30 | 247 | 8.0 | 11.3 | 0.00 | 0.00 | 0.00 | 20 | 1000.6 |
| 20260504204527 | 30 | 346 | 6.4 | 12.9 | 0.00 | 0.00 | 0.00 | 20 | 1000.6 |
| 20260504204026 | 29 | 290 | 12.9 | 16.1 | 0.00 | 0.00 | 0.00 | 21 | 1000.7 |
| 20260504203523 | 29 | 305 | 8.0 | 14.5 | 0.00 | 0.00 | 0.00 | 20 | 1000.8 |
| 20260504203021 | 29 | 321 | 6.4 | 12.9 | 0.00 | 0.00 | 0.00 | 20 | 1000.6 |
| 20260504202516 | 29 | 326 | 8.0 | 14.5 | 0.00 | 0.00 | 0.00 | 21 | 1000.7 |
| 20260504202013 | 28 | 220 | 6.4 | 11.3 | 0.00 | 0.00 | 0.00 | 21 | 1000.9 |
| 20260504201510 | 28 | 269 | 8.0 | 16.1 | 0.00 | 0.00 | 0.00 | 20 | 1001.0 |
| 20260504201008 | 28 | 300 | 4.8 | 16.1 | 0.00 | 0.00 | 0.00 | 22 | 1000.9 |
| 20260504200504 | 29 | 246 | 8.0 | 12.9 | 0.00 | 0.00 | 0.00 | 21 | 1000.9 |
| 20260504200001 | 29 | 255 | 4.8 | 14.5 | 0.00 | 0.00 | 0.00 | 22 | 1000.9 |
| 20260504195457 | 28 | 289 | 3.2 | 14.5 | 0.00 | 0.00 | 0.00 | 23 | 1000.9 |
| 20260504194954 | 28 | 309 | 6.4 | 16.1 | 0.00 | 0.00 | 0.00 | 23 | 1001.0 |
| 20260504194450 | 28 | 280 | 4.8 | 11.3 | 0.00 | 0.00 | 0.00 | 23 | 1001.0 |
| 20260504193945 | 28 | 278 | 3.2 | 12.9 | 0.00 | 0.00 | 0.00 | 23 | 1000.9 |
| 20260504193443 | 28 | 257 | 3.2 | 11.3 | 0.00 | 0.00 | 0.00 | 25 | 1001.2 |
| 20260504192942 | 28 | 155 | 8.0 | 14.5 | 0.00 | 0.00 | 0.00 | 25 | 1001.2 |
| 20260504192438 | 28 | 273 | 3.2 | 20.9 | 0.00 | 0.00 | 0.00 | 25 | 1001.1 |
| 20260504191937 | 28 | 244 | 3.2 | 16.1 | 0.00 | 0.00 | 0.00 | 25 | 1001.0 |
| 20260504191435 | 28 | 284 | 4.8 | 11.3 | 0.00 | 0.00 | 0.00 | 26 | 1000.9 |
| 20260504190930 | 29 | 275 | 4.8 | 12.9 | 0.00 | 0.00 | 0.00 | 26 | 1000.9 |
| 20260504190426 | 29 | 259 | 3.2 | 8.0 | 0.00 | 0.00 | 0.00 | 25 | 1001.1 |
| 20260504185923 | 28 | 239 | 3.2 | 4.8 | 0.00 | 0.00 | 0.00 | 27 | 1001.0 |
| 20260504185420 | 28 | 320 | 4.8 | 12.9 | 0.00 | 0.00 | 0.00 | 26 | 1000.9 |
| 20260504184915 | 27 | 241 | 3.2 | 9.7 | 0.00 | 0.00 | 0.00 | 26 | 1001.1 |
| 20260504184412 | 27 | 242 | 9.7 | 11.3 | 0.00 | 0.00 | 0.00 | 28 | 1001.1 |
| 20260504183908 | 28 | 261 | 4.8 | 17.7 | 0.00 | 0.00 | 0.00 | 25 | 1001.0 |
| 20260504183405 | 28 | 297 | 1.6 | 4.8 | 0.00 | 0.00 | 0.00 | 27 | 1001.0 |
| 20260504182903 | 28 | 253 | 4.8 | 11.3 | 0.00 | 0.00 | 0.00 | 28 | 1001.2 |
| 20260504182400 | 28 | 255 | 4.8 | 12.9 | 0.00 | 0.00 | 0.00 | 27 | 1000.8 |
| 20260504181856 | 28 | 271 | 3.2 | 14.5 | 0.00 | 0.00 | 0.00 | 26 | 1001.0 |
| 20260504181354 | 28 | 257 | 4.8 | 11.3 | 0.00 | 0.00 | 0.00 | 26 | 1001.1 |
| 20260504180853 | 28 | 249 | 4.8 | 12.9 | 0.00 | 0.00 | 0.00 | 27 | 1001.0 |
| 20260504180351 | 28 | 279 | 4.8 | 8.0 | 0.00 | 0.00 | 0.00 | 27 | 1001.0 |
| 20260504175849 | 28 | 304 | 3.2 | 8.0 | 0.00 | 0.00 | 0.00 | 30 | 1001.0 |
| 20260504175345 | 28 | 226 | 17.7 | 24.1 | 0.00 | 0.00 | 0.00 | 26 | 1001.1 |
| 20260504174843 | 27 | 279 | 11.3 | 16.1 | 0.00 | 0.00 | 0.00 | 27 | 1001.1 |
| 20260504174341 | 27 | 191 | 8.0 | 20.9 | 0.00 | 0.00 | 0.00 | 28 | 1001.1 |
| 20260504173837 | 27 | 247 | 8.0 | 12.9 | 0.00 | 0.00 | 0.00 | 29 | 1001.0 |
| 20260504173334 | 27 | 236 | 4.8 | 9.7 | 0.00 | 0.00 | 0.00 | 31 | 1001.0 |
| 20260504172831 | 27 | 254 | 8.0 | 12.9 | 0.00 | 0.00 | 0.00 | 31 | 1001.2 |
| 20260504172328 | 27 | 206 | 6.4 | 16.1 | 0.00 | 0.00 | 0.00 | 33 | 1001.4 |
| 20260504171824 | 27 | 212 | 3.2 | 9.7 | 0.00 | 0.00 | 0.00 | 32 | 1001.4 |
| 20260504171321 | 27 | 210 | 3.2 | 14.5 | 0.00 | 0.00 | 0.00 | 32 | 1001.3 |
| 20260504170818 | 26 | 266 | 3.2 | 17.7 | 0.00 | 0.00 | 0.00 | 35 | 1001.2 |
| 20260504170315 | 27 | 267 | 6.4 | 12.9 | 0.00 | 0.00 | 0.00 | 32 | 1001.2 |
| 20260504160233 | 25 | 242 | 3.2 | 3.2 | 0.00 | 0.00 | 0.00 | 42 | 1001.7 |
| 20260504150659 | 21 | 243 | 1.6 | 8.0 | 0.00 | 0.00 | 0.00 | 48 | 1002.2 |
| 20260504150155 | 21 | 285 | 1.6 | 3.2 | 0.00 | 0.00 | 0.00 | 48 | 1002.0 |
| 20260504141124 | 17 | 250 | 4.8 | 9.7 | 0.00 | 0.00 | 0.00 | 54 | 1002.6 |
| 20260504140621 | 17 | 214 | 3.2 | 11.3 | 0.00 | 0.00 | 0.00 | 55 | 1002.4 |
| 20260504140117 | 17 | 235 | 4.8 | 14.5 | 0.00 | 0.00 | 0.00 | 55 | 1002.6 |
| 20260504130545 | 13 | 244 | 0.0 | 1.6 | 0.00 | 0.00 | 0.00 | 61 | 1003.0 |
| 20260504110433 | 10 | 223 | 1.6 | 1.6 | 0.00 | 0.00 | 0.00 | 66 | 1003.5 |
| 20260504100349 | 11 | 225 | 1.6 | 3.2 | 0.00 | 0.00 | 0.00 | 62 | 1004.0 |